sensor_id;sensor_type;location;lat;lon;timestamp;temperature;humidity
35678;DHT22;21791;42.828;74.582;2023-03-15T00:01:20;9.30;58.40
35678;DHT22;21791;42.828;74.582;2023-03-15T00:03:49;9.10;58.60
35678;DHT22;21791;42.828;74.582;2023-03-15T00:06:15;9.20;59.60
35678;DHT22;21791;42.828;74.582;2023-03-15T00:08:42;9.20;58.30
35678;DHT22;21791;42.828;74.582;2023-03-15T00:11:14;9.30;59.80
35678;DHT22;21791;42.828;74.582;2023-03-15T00:13:40;9.20;59.60
35678;DHT22;21791;42.828;74.582;2023-03-15T00:16:07;9.10;61.90
35678;DHT22;21791;42.828;74.582;2023-03-15T00:18:33;9.00;61.00
35678;DHT22;21791;42.828;74.582;2023-03-15T00:21:00;9.00;60.60
35678;DHT22;21791;42.828;74.582;2023-03-15T00:23:26;8.90;61.00
35678;DHT22;21791;42.828;74.582;2023-03-15T00:25:53;8.90;61.20
35678;DHT22;21791;42.828;74.582;2023-03-15T00:28:20;8.90;62.40
35678;DHT22;21791;42.828;74.582;2023-03-15T00:30:47;8.90;61.60
35678;DHT22;21791;42.828;74.582;2023-03-15T00:33:14;8.90;61.60
35678;DHT22;21791;42.828;74.582;2023-03-15T00:35:42;8.80;62.80
35678;DHT22;21791;42.828;74.582;2023-03-15T00:38:09;8.80;63.10
35678;DHT22;21791;42.828;74.582;2023-03-15T00:40:37;8.80;62.70
35678;DHT22;21791;42.828;74.582;2023-03-15T00:43:03;8.90;61.60
35678;DHT22;21791;42.828;74.582;2023-03-15T00:45:30;9.00;61.50
35678;DHT22;21791;42.828;74.582;2023-03-15T00:47:56;9.20;61.60
35678;DHT22;21791;42.828;74.582;2023-03-15T00:50:23;9.20;61.40
35678;DHT22;21791;42.828;74.582;2023-03-15T00:52:49;9.30;61.50
35678;DHT22;21791;42.828;74.582;2023-03-15T00:55:18;9.30;60.80
35678;DHT22;21791;42.828;74.582;2023-03-15T00:57:45;9.30;61.20
35678;DHT22;21791;42.828;74.582;2023-03-15T01:00:15;9.30;60.90
35678;DHT22;21791;42.828;74.582;2023-03-15T01:02:42;9.20;61.10
35678;DHT22;21791;42.828;74.582;2023-03-15T01:05:09;9.30;60.60
35678;DHT22;21791;42.828;74.582;2023-03-15T01:07:35;9.40;59.90
35678;DHT22;21791;42.828;74.582;2023-03-15T01:10:03;9.40;59.70
35678;DHT22;21791;42.828;74.582;2023-03-15T01:12:32;9.50;59.60
35678;DHT22;21791;42.828;74.582;2023-03-15T01:14:59;9.50;60.00
35678;DHT22;21791;42.828;74.582;2023-03-15T01:17:26;9.50;60.30
35678;DHT22;21791;42.828;74.582;2023-03-15T01:19:52;9.40;60.40
35678;DHT22;21791;42.828;74.582;2023-03-15T01:22:19;9.40;61.30
35678;DHT22;21791;42.828;74.582;2023-03-15T01:24:48;9.30;62.30
35678;DHT22;21791;42.828;74.582;2023-03-15T01:27:14;9.20;62.70
35678;DHT22;21791;42.828;74.582;2023-03-15T01:29:41;9.20;62.70
35678;DHT22;21791;42.828;74.582;2023-03-15T01:32:08;9.20;63.70
35678;DHT22;21791;42.828;74.582;2023-03-15T01:34:34;9.30;63.70
35678;DHT22;21791;42.828;74.582;2023-03-15T01:37:01;9.20;63.10
35678;DHT22;21791;42.828;74.582;2023-03-15T01:39:31;9.30;62.70
35678;DHT22;21791;42.828;74.582;2023-03-15T01:41:57;9.40;62.20
35678;DHT22;21791;42.828;74.582;2023-03-15T01:44:57;9.50;61.90
35678;DHT22;21791;42.828;74.582;2023-03-15T01:47:25;9.50;61.30
35678;DHT22;21791;42.828;74.582;2023-03-15T01:50:03;9.60;60.40
35678;DHT22;21791;42.828;74.582;2023-03-15T01:52:35;9.50;61.20
35678;DHT22;21791;42.828;74.582;2023-03-15T01:55:09;9.50;60.00
35678;DHT22;21791;42.828;74.582;2023-03-15T01:57:50;9.50;58.80
35678;DHT22;21791;42.828;74.582;2023-03-15T02:00:21;9.60;58.80
35678;DHT22;21791;42.828;74.582;2023-03-15T02:02:52;9.70;60.10
35678;DHT22;21791;42.828;74.582;2023-03-15T02:05:26;9.70;57.80
35678;DHT22;21791;42.828;74.582;2023-03-15T02:07:54;9.80;57.30
35678;DHT22;21791;42.828;74.582;2023-03-15T02:10:34;9.90;58.00
35678;DHT22;21791;42.828;74.582;2023-03-15T02:13:02;10.10;56.10
35678;DHT22;21791;42.828;74.582;2023-03-15T02:15:29;10.20;55.90
35678;DHT22;21791;42.828;74.582;2023-03-15T02:17:56;10.20;56.40
35678;DHT22;21791;42.828;74.582;2023-03-15T02:23:23;10.30;56.00
35678;DHT22;21791;42.828;74.582;2023-03-15T02:25:51;10.40;56.60
35678;DHT22;21791;42.828;74.582;2023-03-15T02:28:20;10.40;57.20
35678;DHT22;21791;42.828;74.582;2023-03-15T02:30:47;10.60;57.00
35678;DHT22;21791;42.828;74.582;2023-03-15T02:35:44;11.00;56.60
35678;DHT22;21791;42.828;74.582;2023-03-15T02:38:11;11.30;55.70
35678;DHT22;21791;42.828;74.582;2023-03-15T02:40:37;11.40;55.80
35678;DHT22;21791;42.828;74.582;2023-03-15T02:43:24;11.50;55.90
35678;DHT22;21791;42.828;74.582;2023-03-15T02:45:53;11.60;55.40
35678;DHT22;21791;42.828;74.582;2023-03-15T02:48:20;11.60;56.70
35678;DHT22;21791;42.828;74.582;2023-03-15T02:50:47;11.40;56.70
35678;DHT22;21791;42.828;74.582;2023-03-15T02:53:14;11.70;55.80
35678;DHT22;21791;42.828;74.582;2023-03-15T02:55:40;11.90;55.50
35678;DHT22;21791;42.828;74.582;2023-03-15T02:58:07;11.90;55.50
35678;DHT22;21791;42.828;74.582;2023-03-15T03:00:34;12.00;55.10
35678;DHT22;21791;42.828;74.582;2023-03-15T03:03:01;12.00;55.40
35678;DHT22;21791;42.828;74.582;2023-03-15T03:05:27;11.90;56.40
35678;DHT22;21791;42.828;74.582;2023-03-15T03:07:54;11.90;56.80
35678;DHT22;21791;42.828;74.582;2023-03-15T03:10:21;12.10;58.30
35678;DHT22;21791;42.828;74.582;2023-03-15T03:12:47;12.50;57.00
35678;DHT22;21791;42.828;74.582;2023-03-15T03:15:18;13.10;56.50
35678;DHT22;21791;42.828;74.582;2023-03-15T03:17:45;13.40;55.10
35678;DHT22;21791;42.828;74.582;2023-03-15T03:20:13;13.70;54.10
35678;DHT22;21791;42.828;74.582;2023-03-15T03:22:40;13.60;54.30
35678;DHT22;21791;42.828;74.582;2023-03-15T03:25:10;13.60;54.50
35678;DHT22;21791;42.828;74.582;2023-03-15T03:27:40;13.70;54.90
35678;DHT22;21791;42.828;74.582;2023-03-15T03:30:10;13.90;54.50
35678;DHT22;21791;42.828;74.582;2023-03-15T03:32:36;14.20;53.80
35678;DHT22;21791;42.828;74.582;2023-03-15T03:35:05;14.20;54.80
35678;DHT22;21791;42.828;74.582;2023-03-15T03:37:32;14.50;53.80
35678;DHT22;21791;42.828;74.582;2023-03-15T03:40:00;14.80;53.10
35678;DHT22;21791;42.828;74.582;2023-03-15T03:42:31;15.20;52.50
35678;DHT22;21791;42.828;74.582;2023-03-15T03:44:58;15.60;52.30
35678;DHT22;21791;42.828;74.582;2023-03-15T03:47:24;15.60;51.30
35678;DHT22;21791;42.828;74.582;2023-03-15T03:50:00;15.80;50.40
35678;DHT22;21791;42.828;74.582;2023-03-15T03:52:26;16.00;51.50
35678;DHT22;21791;42.828;74.582;2023-03-15T03:54:53;16.10;52.50
35678;DHT22;21791;42.828;74.582;2023-03-15T03:57:20;14.70;59.60
35678;DHT22;21791;42.828;74.582;2023-03-15T03:59:46;14.30;64.60
35678;DHT22;21791;42.828;74.582;2023-03-15T04:02:13;13.40;72.50
35678;DHT22;21791;42.828;74.582;2023-03-15T04:04:39;12.30;80.30
35678;DHT22;21791;42.828;74.582;2023-03-15T04:07:07;11.90;83.30
35678;DHT22;21791;42.828;74.582;2023-03-15T04:09:34;11.60;80.20
35678;DHT22;21791;42.828;74.582;2023-03-15T04:12:04;11.40;78.30
35678;DHT22;21791;42.828;74.582;2023-03-15T04:14:31;11.10;81.30
35678;DHT22;21791;42.828;74.582;2023-03-15T04:16:58;11.20;81.40
35678;DHT22;21791;42.828;74.582;2023-03-15T04:19:24;11.30;83.70
35678;DHT22;21791;42.828;74.582;2023-03-15T04:21:51;11.30;84.80
35678;DHT22;21791;42.828;74.582;2023-03-15T04:24:18;11.70;86.30
35678;DHT22;21791;42.828;74.582;2023-03-15T04:26:44;11.90;88.90
35678;DHT22;21791;42.828;74.582;2023-03-15T04:29:11;11.60;89.50
35678;DHT22;21791;42.828;74.582;2023-03-15T04:31:40;11.50;91.10
35678;DHT22;21791;42.828;74.582;2023-03-15T04:34:08;11.90;92.40
35678;DHT22;21791;42.828;74.582;2023-03-15T04:36:35;12.10;94.50
35678;DHT22;21791;42.828;74.582;2023-03-15T04:39:02;12.20;96.00
35678;DHT22;21791;42.828;74.582;2023-03-15T04:41:31;11.90;99.40
35678;DHT22;21791;42.828;74.582;2023-03-15T04:44:03;12.00;99.90
35678;DHT22;21791;42.828;74.582;2023-03-15T04:46:31;12.00;99.90
35678;DHT22;21791;42.828;74.582;2023-03-15T04:48:59;11.70;99.90
35678;DHT22;21791;42.828;74.582;2023-03-15T04:51:26;12.00;99.90
35678;DHT22;21791;42.828;74.582;2023-03-15T04:53:53;12.40;99.90
35678;DHT22;21791;42.828;74.582;2023-03-15T04:56:19;12.50;99.90
35678;DHT22;21791;42.828;74.582;2023-03-15T04:58:46;12.70;99.90
35678;DHT22;21791;42.828;74.582;2023-03-15T05:01:13;12.30;99.90
35678;DHT22;21791;42.828;74.582;2023-03-15T05:03:39;12.60;99.90
35678;DHT22;21791;42.828;74.582;2023-03-15T05:06:06;12.50;99.90
35678;DHT22;21791;42.828;74.582;2023-03-15T05:08:36;12.70;99.90
35678;DHT22;21791;42.828;74.582;2023-03-15T05:11:03;13.10;99.90
35678;DHT22;21791;42.828;74.582;2023-03-15T05:13:30;13.30;99.90
35678;DHT22;21791;42.828;74.582;2023-03-15T05:15:57;13.20;99.90
35678;DHT22;21791;42.828;74.582;2023-03-15T05:18:24;12.90;99.90
35678;DHT22;21791;42.828;74.582;2023-03-15T05:20:50;13.10;99.90
35678;DHT22;21791;42.828;74.582;2023-03-15T05:23:17;12.90;99.90
35678;DHT22;21791;42.828;74.582;2023-03-15T05:25:48;12.90;99.90
35678;DHT22;21791;42.828;74.582;2023-03-15T05:28:14;12.90;99.90
35678;DHT22;21791;42.828;74.582;2023-03-15T05:30:43;13.20;99.90
35678;DHT22;21791;42.828;74.582;2023-03-15T05:33:10;13.70;99.90
35678;DHT22;21791;42.828;74.582;2023-03-15T05:35:37;13.70;99.90
35678;DHT22;21791;42.828;74.582;2023-03-15T05:38:03;13.20;99.90
35678;DHT22;21791;42.828;74.582;2023-03-15T05:40:31;13.30;99.90
35678;DHT22;21791;42.828;74.582;2023-03-15T05:42:58;13.50;99.90
35678;DHT22;21791;42.828;74.582;2023-03-15T05:45:25;13.70;99.90
35678;DHT22;21791;42.828;74.582;2023-03-15T05:47:51;14.00;99.90
35678;DHT22;21791;42.828;74.582;2023-03-15T05:50:18;13.70;99.90
35678;DHT22;21791;42.828;74.582;2023-03-15T05:52:44;13.90;99.90
35678;DHT22;21791;42.828;74.582;2023-03-15T05:55:11;13.90;99.90
35678;DHT22;21791;42.828;74.582;2023-03-15T05:57:37;13.40;99.90
35678;DHT22;21791;42.828;74.582;2023-03-15T06:00:05;13.50;99.90
35678;DHT22;21791;42.828;74.582;2023-03-15T06:02:31;13.60;99.90
35678;DHT22;21791;42.828;74.582;2023-03-15T06:04:58;13.60;99.90
35678;DHT22;21791;42.828;74.582;2023-03-15T06:07:25;13.50;99.90
35678;DHT22;21791;42.828;74.582;2023-03-15T06:09:52;13.60;99.90
35678;DHT22;21791;42.828;74.582;2023-03-15T06:12:19;13.60;99.90
35678;DHT22;21791;42.828;74.582;2023-03-15T06:14:45;13.40;99.90
35678;DHT22;21791;42.828;74.582;2023-03-15T06:17:11;13.60;99.90
35678;DHT22;21791;42.828;74.582;2023-03-15T06:19:38;13.50;98.50
35678;DHT22;21791;42.828;74.582;2023-03-15T06:22:04;13.70;99.60
35678;DHT22;21791;42.828;74.582;2023-03-15T06:24:31;14.00;99.90
35678;DHT22;21791;42.828;74.582;2023-03-15T06:26:57;13.60;99.10
35678;DHT22;21791;42.828;74.582;2023-03-15T06:29:24;14.00;99.90
35678;DHT22;21791;42.828;74.582;2023-03-15T06:31:51;13.80;99.90
35678;DHT22;21791;42.828;74.582;2023-03-15T06:34:19;14.30;99.90
35678;DHT22;21791;42.828;74.582;2023-03-15T06:36:46;14.40;99.90
35678;DHT22;21791;42.828;74.582;2023-03-15T06:39:12;14.70;99.90
35678;DHT22;21791;42.828;74.582;2023-03-15T06:41:40;14.50;98.80
35678;DHT22;21791;42.828;74.582;2023-03-15T06:44:07;14.50;99.20
35678;DHT22;21791;42.828;74.582;2023-03-15T06:46:33;14.90;97.00
35678;DHT22;21791;42.828;74.582;2023-03-15T06:49:00;14.60;97.60
35678;DHT22;21791;42.828;74.582;2023-03-15T06:51:28;14.50;96.40
35678;DHT22;21791;42.828;74.582;2023-03-15T06:53:55;14.50;94.80
35678;DHT22;21791;42.828;74.582;2023-03-15T06:56:21;14.50;96.50
35678;DHT22;21791;42.828;74.582;2023-03-15T06:58:48;13.90;98.50
35678;DHT22;21791;42.828;74.582;2023-03-15T07:01:15;13.90;99.80
35678;DHT22;21791;42.828;74.582;2023-03-15T07:03:41;13.90;98.20
35678;DHT22;21791;42.828;74.582;2023-03-15T07:06:08;13.90;99.70
35678;DHT22;21791;42.828;74.582;2023-03-15T07:08:36;14.00;99.80
35678;DHT22;21791;42.828;74.582;2023-03-15T07:11:03;13.70;98.30
35678;DHT22;21791;42.828;74.582;2023-03-15T07:13:31;13.80;99.80
35678;DHT22;21791;42.828;74.582;2023-03-15T07:15:58;13.50;99.70
35678;DHT22;21791;42.828;74.582;2023-03-15T07:18:24;13.30;99.90
35678;DHT22;21791;42.828;74.582;2023-03-15T07:20:57;13.40;99.90
35678;DHT22;21791;42.828;74.582;2023-03-15T07:23:24;13.30;99.90
35678;DHT22;21791;42.828;74.582;2023-03-15T07:25:51;13.30;99.90
35678;DHT22;21791;42.828;74.582;2023-03-15T07:28:20;13.30;99.90
35678;DHT22;21791;42.828;74.582;2023-03-15T07:30:56;13.50;99.90
35678;DHT22;21791;42.828;74.582;2023-03-15T07:33:24;13.20;99.90
35678;DHT22;21791;42.828;74.582;2023-03-15T07:35:51;13.20;99.90
35678;DHT22;21791;42.828;74.582;2023-03-15T07:38:27;13.10;99.90
35678;DHT22;21791;42.828;74.582;2023-03-15T07:40:57;13.10;99.90
35678;DHT22;21791;42.828;74.582;2023-03-15T07:43:26;13.10;99.90
35678;DHT22;21791;42.828;74.582;2023-03-15T07:45:54;13.00;99.90
35678;DHT22;21791;42.828;74.582;2023-03-15T07:48:21;13.20;99.90
35678;DHT22;21791;42.828;74.582;2023-03-15T07:50:47;13.80;99.90
35678;DHT22;21791;42.828;74.582;2023-03-15T07:53:14;13.60;99.90
35678;DHT22;21791;42.828;74.582;2023-03-15T07:55:40;13.10;99.90
35678;DHT22;21791;42.828;74.582;2023-03-15T07:58:07;13.50;99.90
35678;DHT22;21791;42.828;74.582;2023-03-15T08:00:34;13.80;99.90
35678;DHT22;21791;42.828;74.582;2023-03-15T08:03:00;14.00;99.70
35678;DHT22;21791;42.828;74.582;2023-03-15T08:05:29;13.60;99.20
35678;DHT22;21791;42.828;74.582;2023-03-15T08:07:56;13.60;98.70
35678;DHT22;21791;42.828;74.582;2023-03-15T08:10:22;13.60;98.80
35678;DHT22;21791;42.828;74.582;2023-03-15T08:12:49;13.60;99.70
35678;DHT22;21791;42.828;74.582;2023-03-15T08:15:16;13.70;97.10
35678;DHT22;21791;42.828;74.582;2023-03-15T08:17:43;13.50;96.50
35678;DHT22;21791;42.828;74.582;2023-03-15T08:20:12;13.50;96.70
35678;DHT22;21791;42.828;74.582;2023-03-15T08:22:46;13.40;96.70
35678;DHT22;21791;42.828;74.582;2023-03-15T08:25:16;13.30;97.40
35678;DHT22;21791;42.828;74.582;2023-03-15T08:27:43;13.50;97.20
35678;DHT22;21791;42.828;74.582;2023-03-15T08:30:11;13.70;97.30
35678;DHT22;21791;42.828;74.582;2023-03-15T08:32:43;13.60;98.20
35678;DHT22;21791;42.828;74.582;2023-03-15T08:35:12;14.10;98.20
35678;DHT22;21791;42.828;74.582;2023-03-15T08:37:39;14.30;95.40
35678;DHT22;21791;42.828;74.582;2023-03-15T08:40:07;14.50;94.30
35678;DHT22;21791;42.828;74.582;2023-03-15T08:42:36;14.40;90.80
35678;DHT22;21791;42.828;74.582;2023-03-15T08:45:04;14.10;90.20
35678;DHT22;21791;42.828;74.582;2023-03-15T08:47:33;13.80;91.40
35678;DHT22;21791;42.828;74.582;2023-03-15T08:50:05;14.00;91.50
35678;DHT22;21791;42.828;74.582;2023-03-15T08:52:32;13.80;91.50
35678;DHT22;21791;42.828;74.582;2023-03-15T08:54:58;13.70;92.70
35678;DHT22;21791;42.828;74.582;2023-03-15T08:57:25;13.40;92.50
35678;DHT22;21791;42.828;74.582;2023-03-15T08:59:52;13.50;92.80
35678;DHT22;21791;42.828;74.582;2023-03-15T09:02:18;13.50;92.90
35678;DHT22;21791;42.828;74.582;2023-03-15T09:04:45;13.60;94.30
35678;DHT22;21791;42.828;74.582;2023-03-15T09:07:12;13.60;93.90
35678;DHT22;21791;42.828;74.582;2023-03-15T09:09:38;13.40;94.50
35678;DHT22;21791;42.828;74.582;2023-03-15T09:12:05;13.10;94.90
35678;DHT22;21791;42.828;74.582;2023-03-15T09:14:32;13.20;95.00
35678;DHT22;21791;42.828;74.582;2023-03-15T09:16:58;13.20;95.70
35678;DHT22;21791;42.828;74.582;2023-03-15T09:19:24;13.20;96.20
35678;DHT22;21791;42.828;74.582;2023-03-15T09:21:51;13.20;95.10
35678;DHT22;21791;42.828;74.582;2023-03-15T09:24:17;13.00;95.90
35678;DHT22;21791;42.828;74.582;2023-03-15T09:26:43;12.80;96.00
35678;DHT22;21791;42.828;74.582;2023-03-15T09:29:09;12.90;96.50
35678;DHT22;21791;42.828;74.582;2023-03-15T09:31:36;12.90;96.90
35678;DHT22;21791;42.828;74.582;2023-03-15T09:34:02;12.90;97.10
35678;DHT22;21791;42.828;74.582;2023-03-15T09:36:31;12.80;97.50
35678;DHT22;21791;42.828;74.582;2023-03-15T09:38:58;12.70;97.70
35678;DHT22;21791;42.828;74.582;2023-03-15T09:49:56;12.70;99.90
35678;DHT22;21791;42.828;74.582;2023-03-15T09:55:20;12.90;99.90
35678;DHT22;21791;42.828;74.582;2023-03-15T09:57:53;12.90;99.60
35678;DHT22;21791;42.828;74.582;2023-03-15T10:00:37;13.00;99.90
35678;DHT22;21791;42.828;74.582;2023-03-15T10:03:04;13.10;99.90
35678;DHT22;21791;42.828;74.582;2023-03-15T10:05:45;13.20;99.00
35678;DHT22;21791;42.828;74.582;2023-03-15T10:08:15;13.10;98.80
35678;DHT22;21791;42.828;74.582;2023-03-15T10:11:20;13.00;98.90
35678;DHT22;21791;42.828;74.582;2023-03-15T10:14:07;13.00;99.10
35678;DHT22;21791;42.828;74.582;2023-03-15T10:16:41;13.00;99.90
35678;DHT22;21791;42.828;74.582;2023-03-15T10:19:43;12.90;99.90
35678;DHT22;21791;42.828;74.582;2023-03-15T10:24:49;12.90;99.90
35678;DHT22;21791;42.828;74.582;2023-03-15T10:27:23;12.90;99.90
35678;DHT22;21791;42.828;74.582;2023-03-15T10:29:53;12.90;99.90
35678;DHT22;21791;42.828;74.582;2023-03-15T10:32:37;12.80;99.90
35678;DHT22;21791;42.828;74.582;2023-03-15T10:35:13;12.90;99.90
35678;DHT22;21791;42.828;74.582;2023-03-15T10:37:41;13.00;99.90
35678;DHT22;21791;42.828;74.582;2023-03-15T10:40:09;13.00;99.90
35678;DHT22;21791;42.828;74.582;2023-03-15T10:42:44;12.90;99.90
35678;DHT22;21791;42.828;74.582;2023-03-15T10:45:22;12.90;99.90
35678;DHT22;21791;42.828;74.582;2023-03-15T10:47:49;13.00;99.90
35678;DHT22;21791;42.828;74.582;2023-03-15T10:50:31;12.90;99.90
35678;DHT22;21791;42.828;74.582;2023-03-15T10:53:00;12.80;99.90
35678;DHT22;21791;42.828;74.582;2023-03-15T10:55:33;12.80;99.90
35678;DHT22;21791;42.828;74.582;2023-03-15T11:00:58;13.10;99.90
35678;DHT22;21791;42.828;74.582;2023-03-15T11:03:26;13.10;99.90
35678;DHT22;21791;42.828;74.582;2023-03-15T11:05:54;13.10;99.90
35678;DHT22;21791;42.828;74.582;2023-03-15T11:08:41;13.00;99.90
35678;DHT22;21791;42.828;74.582;2023-03-15T11:11:08;12.90;99.90
35678;DHT22;21791;42.828;74.582;2023-03-15T11:13:37;12.70;99.90
35678;DHT22;21791;42.828;74.582;2023-03-15T11:18:54;12.70;99.60
35678;DHT22;21791;42.828;74.582;2023-03-15T11:21:25;12.70;99.90
35678;DHT22;21791;42.828;74.582;2023-03-15T11:23:54;12.70;99.90
35678;DHT22;21791;42.828;74.582;2023-03-15T11:26:23;12.70;99.90
35678;DHT22;21791;42.828;74.582;2023-03-15T11:28:55;12.70;99.90
35678;DHT22;21791;42.828;74.582;2023-03-15T11:31:26;12.60;99.90
35678;DHT22;21791;42.828;74.582;2023-03-15T11:33:57;12.50;99.90
35678;DHT22;21791;42.828;74.582;2023-03-15T11:36:29;12.50;99.90
35678;DHT22;21791;42.828;74.582;2023-03-15T11:38:59;12.50;99.90
35678;DHT22;21791;42.828;74.582;2023-03-15T11:42:04;12.50;99.90
35678;DHT22;21791;42.828;74.582;2023-03-15T11:47:15;12.50;99.90
35678;DHT22;21791;42.828;74.582;2023-03-15T11:49:54;12.60;99.90
35678;DHT22;21791;42.828;74.582;2023-03-15T11:52:26;12.50;99.90
35678;DHT22;21791;42.828;74.582;2023-03-15T11:55:00;12.50;99.90
35678;DHT22;21791;42.828;74.582;2023-03-15T11:59:56;12.50;99.90
35678;DHT22;21791;42.828;74.582;2023-03-15T12:02:50;12.50;99.90
35678;DHT22;21791;42.828;74.582;2023-03-15T12:06:10;12.40;99.90
35678;DHT22;21791;42.828;74.582;2023-03-15T12:10:59;12.30;96.70
35678;DHT22;21791;42.828;74.582;2023-03-15T12:13:29;12.20;97.40
35678;DHT22;21791;42.828;74.582;2023-03-15T12:15:56;12.20;96.90
35678;DHT22;21791;42.828;74.582;2023-03-15T12:18:37;12.20;97.00
35678;DHT22;21791;42.828;74.582;2023-03-15T12:21:53;12.10;96.20
35678;DHT22;21791;42.828;74.582;2023-03-15T12:24:29;12.10;96.40
35678;DHT22;21791;42.828;74.582;2023-03-15T12:27:03;12.00;96.50
35678;DHT22;21791;42.828;74.582;2023-03-15T12:29:33;12.00;97.40
35678;DHT22;21791;42.828;74.582;2023-03-15T12:37:23;11.80;99.80
35678;DHT22;21791;42.828;74.582;2023-03-15T12:42:58;11.80;99.90
35678;DHT22;21791;42.828;74.582;2023-03-15T12:45:33;11.60;99.90
35678;DHT22;21791;42.828;74.582;2023-03-15T12:53:22;11.30;99.90
35678;DHT22;21791;42.828;74.582;2023-03-15T12:55:53;11.30;99.90
35678;DHT22;21791;42.828;74.582;2023-03-15T12:58:26;11.20;99.90
35678;DHT22;21791;42.828;74.582;2023-03-15T13:00:54;11.10;99.90
35678;DHT22;21791;42.828;74.582;2023-03-15T13:03:24;11.20;99.90
35678;DHT22;21791;42.828;74.582;2023-03-15T13:16:43;11.00;99.90
35678;DHT22;21791;42.828;74.582;2023-03-15T13:22:13;10.90;99.90
35678;DHT22;21791;42.828;74.582;2023-03-15T13:25:01;10.80;99.90
35678;DHT22;21791;42.828;74.582;2023-03-15T13:35:32;10.70;99.90
35678;DHT22;21791;42.828;74.582;2023-03-15T13:38:20;10.60;99.90
35678;DHT22;21791;42.828;74.582;2023-03-15T13:40:47;10.50;99.90
35678;DHT22;21791;42.828;74.582;2023-03-15T13:43:14;10.50;99.90
35678;DHT22;21791;42.828;74.582;2023-03-15T13:45:44;10.40;99.90
35678;DHT22;21791;42.828;74.582;2023-03-15T13:48:11;10.40;99.90
35678;DHT22;21791;42.828;74.582;2023-03-15T13:50:38;10.40;99.90
35678;DHT22;21791;42.828;74.582;2023-03-15T13:53:04;10.40;99.90
35678;DHT22;21791;42.828;74.582;2023-03-15T13:55:33;10.40;99.90
35678;DHT22;21791;42.828;74.582;2023-03-15T13:58:05;10.20;99.90
35678;DHT22;21791;42.828;74.582;2023-03-15T14:00:34;10.20;99.90
35678;DHT22;21791;42.828;74.582;2023-03-15T14:03:21;10.10;99.90
35678;DHT22;21791;42.828;74.582;2023-03-15T14:05:51;10.10;99.90
35678;DHT22;21791;42.828;74.582;2023-03-15T14:08:33;10.00;99.90
35678;DHT22;21791;42.828;74.582;2023-03-15T14:13:52;10.00;99.90
35678;DHT22;21791;42.828;74.582;2023-03-15T14:16:42;9.90;99.90
35678;DHT22;21791;42.828;74.582;2023-03-15T14:21:49;9.70;99.90
35678;DHT22;21791;42.828;74.582;2023-03-15T14:24:26;9.70;99.90
35678;DHT22;21791;42.828;74.582;2023-03-15T14:26:57;9.70;99.90
35678;DHT22;21791;42.828;74.582;2023-03-15T14:29:37;9.70;99.90
35678;DHT22;21791;42.828;74.582;2023-03-15T14:32:07;9.60;99.90
35678;DHT22;21791;42.828;74.582;2023-03-15T14:34:35;9.60;99.90
35678;DHT22;21791;42.828;74.582;2023-03-15T14:37:07;9.60;99.90
35678;DHT22;21791;42.828;74.582;2023-03-15T14:39:39;9.60;99.90
35678;DHT22;21791;42.828;74.582;2023-03-15T14:42:09;9.60;99.90
35678;DHT22;21791;42.828;74.582;2023-03-15T14:44:37;9.60;99.90
35678;DHT22;21791;42.828;74.582;2023-03-15T14:47:14;9.60;99.90
35678;DHT22;21791;42.828;74.582;2023-03-15T14:49:41;9.60;99.90
35678;DHT22;21791;42.828;74.582;2023-03-15T14:52:12;9.60;99.90
35678;DHT22;21791;42.828;74.582;2023-03-15T14:54:44;9.60;99.90
35678;DHT22;21791;42.828;74.582;2023-03-15T14:57:12;9.70;99.90
35678;DHT22;21791;42.828;74.582;2023-03-15T14:59:38;9.70;99.90
35678;DHT22;21791;42.828;74.582;2023-03-15T15:02:05;9.70;99.90
35678;DHT22;21791;42.828;74.582;2023-03-15T15:04:33;9.70;99.90
35678;DHT22;21791;42.828;74.582;2023-03-15T15:07:02;9.60;99.90
35678;DHT22;21791;42.828;74.582;2023-03-15T15:09:30;9.50;99.90
35678;DHT22;21791;42.828;74.582;2023-03-15T15:11:56;9.50;99.90
35678;DHT22;21791;42.828;74.582;2023-03-15T15:14:23;9.50;99.90
35678;DHT22;21791;42.828;74.582;2023-03-15T15:16:50;9.40;99.90
35678;DHT22;21791;42.828;74.582;2023-03-15T15:19:17;9.40;99.90
35678;DHT22;21791;42.828;74.582;2023-03-15T15:21:43;9.40;99.90
35678;DHT22;21791;42.828;74.582;2023-03-15T15:24:15;9.30;99.90
35678;DHT22;21791;42.828;74.582;2023-03-15T15:26:43;9.40;99.90
35678;DHT22;21791;42.828;74.582;2023-03-15T15:29:14;9.40;99.90
35678;DHT22;21791;42.828;74.582;2023-03-15T15:31:42;9.50;99.90
35678;DHT22;21791;42.828;74.582;2023-03-15T15:34:10;9.40;99.90
35678;DHT22;21791;42.828;74.582;2023-03-15T15:36:42;9.40;99.90
35678;DHT22;21791;42.828;74.582;2023-03-15T15:39:24;9.40;99.90
35678;DHT22;21791;42.828;74.582;2023-03-15T15:41:53;9.40;99.90
35678;DHT22;21791;42.828;74.582;2023-03-15T15:44:21;9.40;99.90
35678;DHT22;21791;42.828;74.582;2023-03-15T15:46:51;9.60;99.90
35678;DHT22;21791;42.828;74.582;2023-03-15T15:49:17;9.70;99.90
35678;DHT22;21791;42.828;74.582;2023-03-15T15:51:46;9.70;99.90
35678;DHT22;21791;42.828;74.582;2023-03-15T15:54:19;9.70;99.90
35678;DHT22;21791;42.828;74.582;2023-03-15T15:56:51;9.60;99.90
35678;DHT22;21791;42.828;74.582;2023-03-15T15:59:18;9.50;99.90
35678;DHT22;21791;42.828;74.582;2023-03-15T16:01:46;9.50;99.90
35678;DHT22;21791;42.828;74.582;2023-03-15T16:04:16;9.50;99.90
35678;DHT22;21791;42.828;74.582;2023-03-15T16:06:49;9.50;99.90
35678;DHT22;21791;42.828;74.582;2023-03-15T16:09:18;9.50;99.90
35678;DHT22;21791;42.828;74.582;2023-03-15T16:11:45;9.50;99.90
35678;DHT22;21791;42.828;74.582;2023-03-15T16:14:12;9.60;99.90
35678;DHT22;21791;42.828;74.582;2023-03-15T16:16:41;9.50;99.90
35678;DHT22;21791;42.828;74.582;2023-03-15T16:19:08;9.40;99.90
35678;DHT22;21791;42.828;74.582;2023-03-15T16:21:44;9.30;99.90
35678;DHT22;21791;42.828;74.582;2023-03-15T16:24:22;9.30;99.90
35678;DHT22;21791;42.828;74.582;2023-03-15T16:26:55;9.20;99.90
35678;DHT22;21791;42.828;74.582;2023-03-15T16:29:28;9.10;99.90
35678;DHT22;21791;42.828;74.582;2023-03-15T16:31:56;9.00;99.90
35678;DHT22;21791;42.828;74.582;2023-03-15T16:34:24;8.90;99.90
35678;DHT22;21791;42.828;74.582;2023-03-15T16:36:51;9.00;99.90
35678;DHT22;21791;42.828;74.582;2023-03-15T16:39:21;8.90;99.90
35678;DHT22;21791;42.828;74.582;2023-03-15T16:41:48;8.90;99.90
35678;DHT22;21791;42.828;74.582;2023-03-15T16:44:17;8.70;99.90
35678;DHT22;21791;42.828;74.582;2023-03-15T16:46:47;8.60;99.90
35678;DHT22;21791;42.828;74.582;2023-03-15T16:49:14;8.50;99.90